createdAt,value
2018-11-12T00:00:48.352Z,99554.00
2018-11-12T00:01:51.675Z,99558.00
2018-11-12T00:02:58.184Z,99559.00
2018-11-12T00:04:01.775Z,99559.00
2018-11-12T00:05:05.193Z,99551.00
2018-11-12T00:06:09.367Z,99551.00
2018-11-12T00:07:12.827Z,99556.00
2018-11-12T00:08:16.687Z,99555.00
2018-11-12T00:09:20.279Z,99556.00
2018-11-12T00:10:24.063Z,99555.00
2018-11-12T00:11:28.475Z,99560.00
2018-11-12T00:12:32.067Z,99557.00
2018-11-12T00:13:35.739Z,99556.00
2018-11-12T00:14:39.519Z,99557.00
2018-11-12T00:15:43.331Z,99549.00
2018-11-12T00:16:47.037Z,99554.00
2018-11-12T00:17:50.922Z,99551.00
2018-11-12T00:18:54.528Z,99558.00
2018-11-12T00:19:58.432Z,99554.00
2018-11-12T00:21:01.993Z,99549.00
2018-11-12T00:22:05.983Z,99547.00
2018-11-12T00:23:09.546Z,99545.00
2018-11-12T00:24:13.521Z,99545.00
2018-11-12T00:25:17.082Z,99548.00
2018-11-12T00:26:20.981Z,99544.00
2018-11-12T00:27:24.591Z,99550.00
2018-11-12T00:28:28.371Z,99547.00
2018-11-12T00:29:32.084Z,99549.00
2018-11-12T00:30:36.062Z,99540.00
2018-11-12T00:31:39.660Z,99549.00
2018-11-12T00:32:43.792Z,99541.00
2018-11-12T00:33:47.180Z,99536.00
2018-11-12T00:34:50.549Z,99542.00
2018-11-12T00:35:54.224Z,99539.00
2018-11-12T00:36:57.774Z,99542.00
2018-11-12T00:38:01.740Z,99535.00
2018-11-12T00:39:06.169Z,99536.00
2018-11-12T00:40:09.969Z,99536.00
2018-11-12T00:41:13.756Z,99537.00
2018-11-12T00:42:17.218Z,99538.00
2018-11-12T00:43:21.098Z,99540.00
2018-11-12T00:44:24.686Z,99537.00
2018-11-12T00:45:28.610Z,99542.00
2018-11-12T00:46:32.378Z,99538.00
2018-11-12T00:47:36.184Z,99538.00
2018-11-12T00:48:39.779Z,99534.00
2018-11-12T00:49:43.225Z,99533.00
2018-11-12T00:50:47.078Z,99539.00
2018-11-12T00:51:50.571Z,99543.00
2018-11-12T00:52:54.363Z,99541.00
2018-11-12T00:53:57.892Z,99546.00
2018-11-12T00:55:01.528Z,99541.00
2018-11-12T00:56:05.361Z,99538.00
2018-11-12T00:57:09.344Z,99535.00
2018-11-12T00:58:12.912Z,99536.00
2018-11-12T00:59:16.706Z,99538.00
2018-11-12T01:00:21.137Z,99536.00
2018-11-12T01:01:24.802Z,99534.00
2018-11-12T01:02:28.324Z,99537.00
2018-11-12T01:03:31.918Z,99535.00
2018-11-12T01:04:35.629Z,99537.00
2018-11-12T01:05:39.175Z,99538.00
2018-11-12T01:06:42.864Z,99533.00
2018-11-12T01:07:46.428Z,99540.00
2018-11-12T01:08:50.092Z,99542.00
2018-11-12T01:09:53.575Z,99543.00
2018-11-12T01:10:57.448Z,99540.00
2018-11-12T01:12:01.026Z,99542.00
2018-11-12T01:13:04.832Z,99547.00
2018-11-12T01:14:07.935Z,99534.00
2018-11-12T01:15:12.641Z,99531.00
2018-11-12T01:16:16.324Z,99532.00
2018-11-12T01:17:20.136Z,99534.00
2018-11-12T01:18:23.727Z,99534.00
2018-11-12T01:19:27.399Z,99538.00
2018-11-12T01:20:30.979Z,99534.00
2018-11-12T01:21:34.539Z,99542.00
2018-11-12T01:22:38.310Z,99541.00
2018-11-12T01:23:41.987Z,99537.00
2018-11-12T01:24:45.801Z,99536.00
2018-11-12T01:25:49.504Z,99539.00
2018-11-12T01:26:53.404Z,99538.00
2018-11-12T01:27:57.112Z,99534.00
2018-11-12T01:29:00.883Z,99534.00
2018-11-12T01:30:04.489Z,99538.00
2018-11-12T01:31:08.752Z,99536.00
2018-11-12T01:32:12.206Z,99530.00
2018-11-12T01:33:15.291Z,99531.00
2018-11-12T01:34:19.100Z,99532.00
2018-11-12T01:35:22.551Z,99531.00
2018-11-12T01:36:26.083Z,99536.00
2018-11-12T01:37:29.793Z,99530.00
2018-11-12T01:38:33.803Z,99534.00
2018-11-12T01:39:38.788Z,99531.00
2018-11-12T01:40:42.711Z,99528.00
2018-11-12T01:41:46.443Z,99539.00
2018-11-12T01:42:49.947Z,99535.00
2018-11-12T01:43:53.779Z,99541.00
2018-11-12T01:44:57.312Z,99541.00
2018-11-12T01:46:01.104Z,99552.00
2018-11-12T01:47:04.825Z,99567.00
2018-11-12T01:48:08.591Z,99572.00
2018-11-12T01:49:12.167Z,99583.00
2018-11-12T01:50:16.451Z,99587.00
2018-11-12T01:51:19.909Z,99585.00
2018-11-12T01:52:23.571Z,99590.00
2018-11-12T01:53:27.171Z,99595.00
2018-11-12T01:54:31.031Z,99600.00
2018-11-12T01:55:34.757Z,99610.00
2018-11-12T01:56:38.542Z,99613.00
2018-11-12T01:57:41.622Z,99615.00
2018-11-12T01:58:45.309Z,99619.00
2018-11-12T01:59:49.108Z,99622.00
2018-11-12T02:00:53.308Z,99624.00
2018-11-12T02:01:57.090Z,99630.00
2018-11-12T02:03:00.565Z,99635.00
2018-11-12T02:04:04.315Z,99641.00
2018-11-12T02:05:08.017Z,99634.00
2018-11-12T02:06:11.805Z,99633.00
2018-11-12T02:07:15.367Z,99636.00
2018-11-12T02:08:18.451Z,99639.00
2018-11-12T02:09:21.569Z,99643.00
2018-11-12T02:10:25.237Z,99642.00
2018-11-12T02:11:28.806Z,99644.00
2018-11-12T02:12:32.613Z,99643.00
2018-11-12T02:13:36.523Z,99647.00
2018-11-12T02:14:40.280Z,99650.00
2018-11-12T02:15:43.740Z,99648.00
2018-11-12T02:16:47.618Z,99654.00
2018-11-12T02:17:51.769Z,99653.00
2018-11-12T02:18:55.583Z,99657.00
2018-11-12T02:19:59.022Z,99660.00
2018-11-12T02:21:02.789Z,99656.00
2018-11-12T02:22:06.385Z,99659.00
2018-11-12T02:23:10.178Z,99655.00
2018-11-12T02:24:13.743Z,99652.00
2018-11-12T02:25:17.935Z,99651.00
2018-11-12T02:26:21.498Z,99650.00
2018-11-12T02:27:25.259Z,99654.00
2018-11-12T02:28:28.695Z,99648.00
2018-11-12T02:29:32.568Z,99649.00
2018-11-12T02:30:40.792Z,99647.00
2018-11-12T02:31:43.950Z,99653.00
2018-11-12T02:32:47.791Z,99647.00
2018-11-12T02:33:51.403Z,99643.00
2018-11-12T02:34:55.276Z,99644.00
2018-11-12T02:35:59.269Z,99640.00
2018-11-12T02:37:02.303Z,99643.00
2018-11-12T02:38:05.769Z,99650.00
2018-11-12T02:39:09.338Z,99649.00
2018-11-12T02:40:13.598Z,99647.00
2018-11-12T02:41:17.254Z,99648.00
2018-11-12T02:42:20.956Z,99652.00
2018-11-12T02:43:24.535Z,99652.00
2018-11-12T02:44:28.420Z,99657.00
2018-11-12T02:45:32.789Z,99657.00
2018-11-12T02:46:36.680Z,99655.00
2018-11-12T02:47:41.480Z,99656.00
2018-11-12T02:48:48.113Z,99657.00
2018-11-12T02:49:52.957Z,99659.00
2018-11-12T02:50:57.879Z,99653.00
2018-11-12T02:52:03.294Z,99663.00
2018-11-12T02:53:08.009Z,99661.00
2018-11-12T02:54:13.072Z,99664.00
2018-11-12T02:55:17.350Z,99669.00
2018-11-12T02:56:21.232Z,99672.00
2018-11-12T02:57:24.968Z,99676.00
2018-11-12T02:58:28.862Z,99671.00
2018-11-12T02:59:32.543Z,99676.00
2018-11-12T03:00:36.207Z,99677.00
2018-11-12T03:01:39.791Z,99679.00
2018-11-12T03:02:43.553Z,99681.00
2018-11-12T03:03:47.044Z,99677.00
2018-11-12T03:04:50.708Z,99683.00
2018-11-12T03:05:54.522Z,99681.00
2018-11-12T03:06:58.202Z,99685.00
2018-11-12T03:08:01.821Z,99683.00
2018-11-12T03:09:06.270Z,99686.00
2018-11-12T03:10:09.858Z,99689.00
2018-11-12T03:11:13.366Z,99689.00
2018-11-12T03:12:17.169Z,99695.00
2018-11-12T03:13:20.960Z,99695.00
2018-11-12T03:14:24.454Z,99692.00
2018-11-12T03:15:27.931Z,99694.00
2018-11-12T03:16:31.331Z,99695.00
2018-11-12T03:17:35.099Z,99690.00
2018-11-12T03:18:38.941Z,99685.00
2018-11-12T03:19:42.610Z,99679.00
2018-11-12T03:20:46.210Z,99681.00
2018-11-12T03:21:49.973Z,99673.00
2018-11-12T03:22:53.562Z,99680.00
2018-11-12T03:23:57.025Z,99669.00
2018-11-12T03:25:00.765Z,99667.00
2018-11-12T03:26:04.261Z,99665.00
2018-11-12T03:27:08.058Z,99664.00
2018-11-12T03:28:11.557Z,99660.00
2018-11-12T03:29:15.041Z,99659.00
2018-11-12T03:30:21.651Z,99657.00
2018-11-12T03:31:25.260Z,99659.00
2018-11-12T03:32:28.943Z,99658.00
2018-11-12T03:33:32.696Z,99656.00
2018-11-12T03:34:36.360Z,99660.00
2018-11-12T03:35:40.178Z,99658.00
2018-11-12T03:36:43.971Z,99656.00
2018-11-12T03:37:48.679Z,99657.00
2018-11-12T03:38:52.487Z,99653.00
2018-11-12T03:39:56.084Z,99648.00
2018-11-12T03:40:59.846Z,99643.00
2018-11-12T03:42:03.550Z,99646.00
2018-11-12T03:43:06.969Z,99644.00
2018-11-12T03:44:11.059Z,99643.00
2018-11-12T03:45:21.827Z,99638.00
2018-11-12T03:46:25.432Z,99633.00
2018-11-12T03:47:29.204Z,99641.00
2018-11-12T03:48:32.547Z,99641.00
2018-11-12T03:49:35.627Z,99635.00
2018-11-12T03:50:39.227Z,99629.00
2018-11-12T03:51:42.757Z,99633.00
2018-11-12T03:52:46.351Z,99629.00
2018-11-12T03:53:49.999Z,99633.00
2018-11-12T03:54:53.722Z,99630.00
2018-11-12T03:55:57.501Z,99630.00
2018-11-12T03:57:01.106Z,99627.00
2018-11-12T03:58:04.985Z,99625.00
2018-11-12T03:59:08.458Z,99621.00
2018-11-12T04:00:12.017Z,99620.00
2018-11-12T04:01:15.864Z,99617.00
2018-11-12T04:02:19.378Z,99619.00
2018-11-12T04:03:23.172Z,99618.00
2018-11-12T04:04:26.680Z,99618.00
2018-11-12T04:05:30.552Z,99610.00
2018-11-12T04:06:34.032Z,99605.00
2018-11-12T04:07:37.949Z,99602.00
2018-11-12T04:08:41.404Z,99610.00
2018-11-12T04:09:44.898Z,99605.00
2018-11-12T04:10:48.529Z,99597.00
2018-11-12T04:11:52.790Z,99603.00
2018-11-12T04:12:56.616Z,99602.00
2018-11-12T04:14:00.182Z,99606.00
2018-11-12T04:15:03.768Z,99605.00
2018-11-12T04:16:07.292Z,99608.00
2018-11-12T04:17:11.088Z,99604.00
2018-11-12T04:18:14.472Z,99604.00
2018-11-12T04:19:18.146Z,99601.00
2018-11-12T04:20:22.625Z,99594.00
2018-11-12T04:21:26.242Z,99600.00
2018-11-12T04:22:29.818Z,99598.00
2018-11-12T04:23:33.455Z,99591.00
2018-11-12T04:24:36.548Z,99591.00
2018-11-12T04:25:41.026Z,99594.00
2018-11-12T04:26:44.549Z,99593.00
2018-11-12T04:27:48.324Z,99593.00
2018-11-12T04:28:52.020Z,99595.00
2018-11-12T04:29:55.787Z,99596.00
2018-11-12T04:30:59.426Z,99594.00
2018-11-12T04:32:03.402Z,99598.00
2018-11-12T04:33:07.095Z,99598.00
2018-11-12T04:34:10.998Z,99597.00
2018-11-12T04:35:14.627Z,99605.00
2018-11-12T04:36:18.480Z,99597.00
2018-11-12T04:37:22.059Z,99599.00
2018-11-12T04:38:25.849Z,99598.00
2018-11-12T04:39:29.666Z,99598.00
2018-11-12T04:40:33.445Z,99602.00
2018-11-12T04:41:36.849Z,99604.00
2018-11-12T04:42:40.575Z,99602.00
2018-11-12T04:43:44.422Z,99604.00
2018-11-12T04:44:47.858Z,99611.00
2018-11-12T04:45:51.726Z,99609.00
2018-11-12T04:46:55.246Z,99611.00
2018-11-12T04:47:59.020Z,99612.00
2018-11-12T04:49:02.494Z,99605.00
2018-11-12T04:50:06.063Z,99608.00
2018-11-12T04:51:09.598Z,99609.00
2018-11-12T04:52:13.203Z,99603.00
2018-11-12T04:53:16.999Z,99607.00
2018-11-12T04:54:20.467Z,99602.00
2018-11-12T04:55:24.927Z,99603.00
2018-11-12T04:56:28.739Z,99597.00
2018-11-12T04:57:32.462Z,99602.00
2018-11-12T04:58:36.331Z,99597.00
2018-11-12T04:59:40.048Z,99601.00
2018-11-12T05:00:43.848Z,99602.00
2018-11-12T05:01:47.402Z,99603.00
2018-11-12T05:02:51.307Z,99594.00
2018-11-12T05:03:54.908Z,99597.00
2018-11-12T05:04:58.793Z,99597.00
2018-11-12T05:06:02.418Z,99600.00
2018-11-12T05:07:06.286Z,99600.00
2018-11-12T05:08:09.897Z,99600.00
2018-11-12T05:09:13.899Z,99601.00
2018-11-12T05:10:18.387Z,99599.00
2018-11-12T05:11:22.433Z,99606.00
2018-11-12T05:12:26.106Z,99609.00
2018-11-12T05:13:29.791Z,99609.00
2018-11-12T05:14:33.474Z,99605.00
2018-11-12T05:15:37.050Z,99606.00
2018-11-12T05:16:40.645Z,99613.00
2018-11-12T05:17:44.355Z,99621.00
2018-11-12T05:18:47.859Z,99626.00
2018-11-12T05:19:51.556Z,99636.00
2018-11-12T05:20:55.124Z,99640.00
2018-11-12T05:21:59.023Z,99639.00
2018-11-12T05:23:02.544Z,99648.00
2018-11-12T05:24:06.087Z,99650.00
2018-11-12T05:25:10.103Z,99655.00
2018-11-12T05:26:13.678Z,99651.00
2018-11-12T05:27:17.425Z,99666.00
2018-11-12T05:28:21.016Z,99669.00
2018-11-12T05:29:24.799Z,99676.00
2018-11-12T05:30:29.277Z,99690.00
2018-11-12T05:31:33.003Z,99693.00
2018-11-12T05:32:36.880Z,99697.00
2018-11-12T05:33:40.503Z,99688.00
2018-11-12T05:34:43.922Z,99692.00
2018-11-12T05:35:47.762Z,99698.00
2018-11-12T05:36:51.363Z,99697.00
2018-11-12T05:37:55.162Z,99699.00
2018-11-12T05:38:58.800Z,99709.00
2018-11-12T05:40:02.613Z,99710.00
2018-11-12T05:41:06.178Z,99714.00
2018-11-12T05:42:09.962Z,99719.00
2018-11-12T05:43:13.542Z,99722.00
2018-11-12T05:44:17.331Z,99720.00
2018-11-12T05:45:21.723Z,99723.00
2018-11-12T05:46:25.524Z,99719.00
2018-11-12T05:47:29.451Z,99724.00
2018-11-12T05:48:33.101Z,99731.00
2018-11-12T05:49:36.829Z,99732.00
2018-11-12T05:50:40.379Z,99729.00
2018-11-12T05:51:44.163Z,99727.00
2018-11-12T05:52:48.526Z,99730.00
2018-11-12T05:53:51.898Z,99732.00
2018-11-12T05:54:55.624Z,99735.00
2018-11-12T05:55:59.367Z,99737.00
2018-11-12T05:57:02.981Z,99739.00
2018-11-12T05:58:06.855Z,99738.00
2018-11-12T05:59:10.639Z,99740.00
2018-11-12T06:00:14.992Z,99748.00
2018-11-12T06:01:18.857Z,99754.00
2018-11-12T06:02:22.566Z,99752.00
2018-11-12T06:03:26.482Z,99748.00
2018-11-12T06:04:30.055Z,99755.00
2018-11-12T06:05:34.161Z,99755.00
2018-11-12T06:06:37.674Z,99758.00
2018-11-12T06:07:41.450Z,99760.00
2018-11-12T06:08:44.947Z,99765.00
2018-11-12T06:09:48.821Z,99762.00
2018-11-12T06:10:52.423Z,99769.00
2018-11-12T06:11:56.599Z,99764.00
2018-11-12T06:12:59.665Z,99769.00
2018-11-12T06:14:03.225Z,99774.00
2018-11-12T06:15:07.180Z,99770.00
2018-11-12T06:16:10.758Z,99776.00
2018-11-12T06:17:14.606Z,99777.00
2018-11-12T06:18:18.090Z,99788.00
2018-11-12T06:19:21.961Z,99787.00
2018-11-12T06:20:26.628Z,99782.00
2018-11-12T06:21:30.293Z,99785.00
2018-11-12T06:22:33.999Z,99788.00
2018-11-12T06:23:37.667Z,99795.00
2018-11-12T06:24:41.078Z,99782.00
2018-11-12T06:25:44.666Z,99791.00
2018-11-12T06:26:48.345Z,99793.00
2018-11-12T06:27:52.418Z,99803.00
2018-11-12T06:28:55.496Z,99803.00
2018-11-12T06:29:59.042Z,99802.00
2018-11-12T06:31:02.923Z,99804.00
2018-11-12T06:32:06.482Z,99803.00
2018-11-12T06:33:10.210Z,99807.00
2018-11-12T06:34:13.714Z,99810.00
2018-11-12T06:35:17.970Z,99812.00
2018-11-12T06:36:21.586Z,99802.00
2018-11-12T06:37:25.331Z,99801.00
2018-11-12T06:38:28.883Z,99799.00
2018-11-12T06:39:32.304Z,99798.00
2018-11-12T06:40:35.376Z,99792.00
2018-11-12T06:41:39.210Z,99782.00
2018-11-12T06:42:43.254Z,99778.00
2018-11-12T06:43:46.847Z,99776.00
2018-11-12T06:44:50.235Z,99771.00
2018-11-12T06:45:53.307Z,99765.00
2018-11-12T06:46:57.041Z,99755.00
2018-11-12T06:48:00.926Z,99747.00
2018-11-12T06:49:04.559Z,99746.00
2018-11-12T06:50:08.076Z,99744.00
2018-11-12T06:51:11.169Z,99743.00
2018-11-12T06:52:14.646Z,99731.00
2018-11-12T06:53:18.543Z,99731.00
2018-11-12T06:54:22.211Z,99737.00
2018-11-12T06:55:26.024Z,99731.00
2018-11-12T06:56:29.691Z,99733.00
2018-11-12T06:57:33.496Z,99737.00
2018-11-12T06:58:37.413Z,99734.00
2018-11-12T06:59:41.451Z,99735.00
2018-11-12T07:00:45.264Z,99735.00
2018-11-12T07:01:48.790Z,99735.00
2018-11-12T07:02:52.674Z,99732.00
2018-11-12T07:03:56.370Z,99732.00
2018-11-12T07:04:59.790Z,99730.00
2018-11-12T07:06:03.473Z,99734.00
2018-11-12T07:07:07.103Z,99738.00
2018-11-12T07:08:10.963Z,99733.00
2018-11-12T07:09:15.025Z,99735.00
2018-11-12T07:10:19.718Z,99726.00
2018-11-12T07:11:23.258Z,99731.00
2018-11-12T07:12:26.351Z,99734.00
2018-11-12T07:13:29.867Z,99730.00
2018-11-12T07:14:33.531Z,99737.00
2018-11-12T07:15:37.146Z,99730.00
2018-11-12T07:16:41.046Z,99732.00
2018-11-12T07:17:44.725Z,99735.00
2018-11-12T07:18:48.574Z,99737.00
2018-11-12T07:19:52.256Z,99737.00
2018-11-12T07:20:56.023Z,99745.00
2018-11-12T07:21:59.537Z,99743.00
2018-11-12T07:23:03.079Z,99742.00
2018-11-12T07:24:06.588Z,99740.00
2018-11-12T07:25:10.875Z,99739.00
2018-11-12T07:26:14.578Z,99743.00
2018-11-12T07:27:18.472Z,99748.00
2018-11-12T07:28:21.591Z,99744.00
2018-11-12T07:29:25.130Z,99740.00
2018-11-12T07:30:29.577Z,99744.00
2018-11-12T07:31:38.995Z,99740.00
2018-11-12T07:32:42.659Z,99741.00
2018-11-12T07:33:45.730Z,99740.00
2018-11-12T07:34:49.368Z,99735.00
2018-11-12T07:35:53.216Z,99734.00
2018-11-12T07:36:56.800Z,99743.00
2018-11-12T07:38:00.603Z,99739.00
2018-11-12T07:39:04.615Z,99741.00
2018-11-12T07:40:08.491Z,99738.00
2018-11-12T07:41:12.032Z,99744.00
2018-11-12T07:42:15.823Z,99741.00
2018-11-12T07:43:19.311Z,99746.00
2018-11-12T07:44:22.396Z,99744.00
2018-11-12T07:45:27.141Z,99738.00
2018-11-12T07:46:30.903Z,99737.00
2018-11-12T07:47:34.494Z,99744.00
2018-11-12T07:48:38.295Z,99742.00
2018-11-12T07:49:41.777Z,99738.00
2018-11-12T07:50:45.187Z,99744.00
2018-11-12T07:51:49.026Z,99743.00
2018-11-12T07:52:52.555Z,99744.00
2018-11-12T07:53:56.234Z,99736.00
2018-11-12T07:54:59.687Z,99740.00
2018-11-12T07:56:03.301Z,99734.00
2018-11-12T07:57:06.881Z,99741.00
2018-11-12T07:58:10.304Z,99740.00
2018-11-12T07:59:14.066Z,99744.00
2018-11-12T08:00:18.521Z,99743.00
2018-11-12T08:01:22.263Z,99745.00
2018-11-12T08:02:26.073Z,99742.00
2018-11-12T08:03:29.783Z,99737.00
2018-11-12T08:04:33.485Z,99693.00
2018-11-12T08:05:36.988Z,99736.00
2018-11-12T08:06:40.555Z,99733.00
2018-11-12T08:07:44.790Z,99737.00
2018-11-12T08:08:48.696Z,99735.00
2018-11-12T08:09:52.284Z,99731.00
2018-11-12T08:10:56.132Z,99736.00
2018-11-12T08:11:59.866Z,99728.00
2018-11-12T08:13:03.754Z,99728.00
2018-11-12T08:14:07.362Z,99725.00
2018-11-12T08:15:12.525Z,99725.00
2018-11-12T08:16:16.231Z,99722.00
2018-11-12T08:17:20.006Z,99729.00
2018-11-12T08:18:23.744Z,99727.00
2018-11-12T08:19:27.523Z,99721.00
2018-11-12T08:20:31.104Z,99723.00
2018-11-12T08:21:34.726Z,99726.00
2018-11-12T08:22:38.388Z,99725.00
2018-11-12T08:23:41.915Z,99722.00
2018-11-12T08:24:45.944Z,99718.00
2018-11-12T08:25:49.323Z,99714.00
2018-11-12T08:26:52.886Z,99720.00
2018-11-12T08:27:56.455Z,99725.00
2018-11-12T08:28:59.895Z,99718.00
2018-11-12T08:30:03.765Z,99720.00
2018-11-12T08:31:07.460Z,99724.00
2018-11-12T08:32:11.147Z,99725.00
2018-11-12T08:33:14.739Z,99730.00
2018-11-12T08:34:18.743Z,99739.00
2018-11-12T08:35:22.343Z,99744.00
2018-11-12T08:36:26.210Z,99745.00
2018-11-12T08:37:30.032Z,99748.00
2018-11-12T08:38:33.694Z,99767.00
2018-11-12T08:39:37.440Z,99766.00
2018-11-12T08:40:41.263Z,99767.00
2018-11-12T08:41:44.874Z,99774.00
2018-11-12T08:42:48.784Z,99778.00
2018-11-12T08:43:52.357Z,99793.00
2018-11-12T08:44:56.419Z,99792.00
2018-11-12T08:46:00.162Z,99796.00
2018-11-12T08:47:04.024Z,99801.00
2018-11-12T08:48:07.697Z,99802.00
2018-11-12T08:49:11.719Z,99808.00
2018-11-12T08:50:16.146Z,99818.00
2018-11-12T08:51:19.694Z,99818.00
2018-11-12T08:52:23.514Z,99818.00
2018-11-12T08:53:27.068Z,99811.00
2018-11-12T08:54:30.972Z,99814.00
2018-11-12T08:55:34.719Z,99813.00
2018-11-12T08:56:38.572Z,99816.00
2018-11-12T08:57:43.488Z,99815.00
2018-11-12T08:58:46.813Z,99817.00
2018-11-12T08:59:50.379Z,99820.00
2018-11-12T09:00:54.083Z,99819.00
2018-11-12T09:01:57.825Z,99822.00
2018-11-12T09:03:01.607Z,99821.00
2018-11-12T09:04:05.502Z,99824.00
2018-11-12T09:05:10.006Z,99823.00
2018-11-12T09:06:13.721Z,99825.00
2018-11-12T09:07:17.934Z,99830.00
2018-11-12T09:08:21.326Z,99829.00
2018-11-12T09:09:25.216Z,99836.00
2018-11-12T09:10:30.787Z,99830.00
2018-11-12T09:11:34.383Z,99831.00
2018-11-12T09:12:37.946Z,99831.00
2018-11-12T09:13:42.076Z,99830.00
2018-11-12T09:14:45.339Z,99826.00
2018-11-12T09:15:49.281Z,99826.00
2018-11-12T09:16:52.980Z,99834.00
2018-11-12T09:17:56.707Z,99830.00
2018-11-12T09:19:00.287Z,99826.00
2018-11-12T09:20:04.199Z,99825.00
2018-11-12T09:21:07.805Z,99824.00
2018-11-12T09:22:11.584Z,99828.00
2018-11-12T09:23:15.291Z,99829.00
2018-11-12T09:24:19.572Z,99827.00
2018-11-12T09:25:23.958Z,99828.00
2018-11-12T09:26:27.496Z,99765.00
2018-11-12T09:27:31.324Z,99836.00
2018-11-12T09:28:34.888Z,99834.00
2018-11-12T09:29:38.854Z,99836.00
2018-11-12T09:30:43.773Z,99833.00
2018-11-12T09:31:45.992Z,99824.00
2018-11-12T09:32:49.358Z,99822.00
2018-11-12T09:33:52.949Z,99820.00
2018-11-12T09:34:56.626Z,99816.00
2018-11-12T09:36:00.231Z,99812.00
2018-11-12T09:37:03.666Z,99815.00
2018-11-12T09:38:07.492Z,99812.00
2018-11-12T09:39:11.223Z,99811.00
2018-11-12T09:40:15.098Z,99807.00
2018-11-12T09:41:18.649Z,99809.00
2018-11-12T09:42:22.442Z,99813.00
2018-11-12T09:43:26.083Z,99809.00
2018-11-12T09:44:29.783Z,99816.00
2018-11-12T09:45:33.149Z,99815.00
2018-11-12T09:46:36.735Z,99816.00
2018-11-12T09:47:40.601Z,99815.00
2018-11-12T09:48:44.285Z,99821.00
2018-11-12T09:49:48.063Z,99817.00
2018-11-12T09:50:51.514Z,99814.00
2018-11-12T09:51:55.431Z,99811.00
2018-11-12T09:52:59.781Z,99811.00
2018-11-12T09:54:03.497Z,99807.00
2018-11-12T09:55:06.978Z,99806.00
2018-11-12T09:56:10.719Z,99805.00
2018-11-12T09:57:14.203Z,99799.00
2018-11-12T09:58:18.101Z,99803.00
2018-11-12T09:59:21.652Z,99799.00
2018-11-12T10:00:25.399Z,99799.00
2018-11-12T10:01:29.267Z,99795.00
2018-11-12T10:02:33.046Z,99794.00
2018-11-12T10:03:37.400Z,99788.00
2018-11-12T10:04:41.334Z,99783.00
2018-11-12T10:05:44.945Z,99781.00
2018-11-12T10:06:49.376Z,99780.00
2018-11-12T10:07:53.673Z,99770.00
2018-11-12T10:08:57.487Z,99776.00
2018-11-12T10:10:01.471Z,99778.00
2018-11-12T10:11:05.432Z,99772.00
2018-11-12T10:12:09.151Z,99774.00
2018-11-12T10:13:12.926Z,99767.00
2018-11-12T10:14:16.192Z,99764.00
2018-11-12T10:15:19.928Z,99772.00
2018-11-12T10:16:23.479Z,99771.00
2018-11-12T10:17:27.194Z,99767.00
2018-11-12T10:18:29.023Z,99768.00
2018-11-12T10:19:32.649Z,99767.00
2018-11-12T10:20:36.503Z,99765.00
2018-11-12T10:21:40.083Z,99764.00
2018-11-12T10:22:43.880Z,99761.00
2018-11-12T10:23:47.438Z,99760.00
2018-11-12T10:24:51.169Z,99757.00
2018-11-12T10:25:54.821Z,99754.00
2018-11-12T10:26:58.293Z,99756.00
2018-11-12T10:28:01.952Z,99754.00
2018-11-12T10:29:05.026Z,99756.00
2018-11-12T10:30:08.617Z,99757.00
2018-11-12T10:31:12.208Z,99759.00
2018-11-12T10:32:15.662Z,99754.00
2018-11-12T10:33:19.073Z,99750.00
2018-11-12T10:34:22.882Z,99742.00
2018-11-12T10:35:26.452Z,99748.00
2018-11-12T10:36:30.234Z,99747.00
2018-11-12T10:37:33.874Z,99743.00
2018-11-12T10:38:37.723Z,99743.00
2018-11-12T10:39:41.355Z,99738.00
2018-11-12T10:40:45.324Z,99735.00
2018-11-12T10:41:48.829Z,99729.00
2018-11-12T10:42:52.283Z,99727.00
2018-11-12T10:43:56.023Z,99729.00
2018-11-12T10:44:59.594Z,99730.00
2018-11-12T10:46:03.406Z,99718.00
2018-11-12T10:47:07.011Z,99722.00
2018-11-12T10:48:10.851Z,99717.00
2018-11-12T10:49:14.371Z,99719.00
2018-11-12T10:50:18.150Z,99726.00
2018-11-12T10:51:21.865Z,99720.00
2018-11-12T10:52:25.635Z,99713.00
2018-11-12T10:53:28.827Z,99709.00
2018-11-12T10:54:32.468Z,99711.00
2018-11-12T10:55:35.781Z,99713.00
2018-11-12T10:56:39.423Z,99704.00
2018-11-12T10:57:43.462Z,99701.00
2018-11-12T10:58:47.176Z,99699.00
2018-11-12T10:59:50.762Z,99698.00
2018-11-12T11:00:59.041Z,99698.00
2018-11-12T11:02:07.445Z,99695.00
2018-11-12T11:03:15.714Z,99692.00
2018-11-12T11:04:24.930Z,99694.00
2018-11-12T11:05:28.430Z,99691.00
2018-11-12T11:06:32.310Z,99691.00
2018-11-12T11:07:35.907Z,99697.00
2018-11-12T11:08:39.574Z,99697.00
2018-11-12T11:09:43.272Z,99697.00
2018-11-12T11:10:46.579Z,99695.00
2018-11-12T11:11:50.147Z,99687.00
2018-11-12T11:12:53.859Z,99690.00
2018-11-12T11:13:57.762Z,99686.00
2018-11-12T11:15:01.343Z,99685.00
2018-11-12T11:16:04.403Z,99689.00
2018-11-12T11:17:08.230Z,99689.00
2018-11-12T11:18:11.783Z,99689.00
2018-11-12T11:19:15.482Z,99691.00
2018-11-12T11:20:19.014Z,99691.00
2018-11-12T11:21:22.147Z,99683.00
2018-11-12T11:22:25.626Z,99692.00
2018-11-12T11:23:29.378Z,99691.00
2018-11-12T11:24:33.160Z,99698.00
2018-11-12T11:25:36.945Z,99696.00
2018-11-12T11:26:40.668Z,99695.00
2018-11-12T11:27:44.443Z,99703.00
2018-11-12T11:28:48.027Z,99703.00
2018-11-12T11:29:51.706Z,99705.00
2018-11-12T11:30:55.391Z,99710.00
2018-11-12T11:31:59.299Z,99709.00
2018-11-12T11:33:02.886Z,99710.00
2018-11-12T11:34:06.377Z,99712.00
2018-11-12T11:35:10.035Z,99713.00
2018-11-12T11:36:13.711Z,99712.00
2018-11-12T11:37:17.358Z,99717.00
2018-11-12T11:38:20.738Z,99720.00
2018-11-12T11:39:24.192Z,99722.00
2018-11-12T11:40:28.538Z,99729.00
2018-11-12T11:41:32.250Z,99738.00
2018-11-12T11:42:35.823Z,99748.00
2018-11-12T11:43:39.301Z,99750.00
2018-11-12T11:44:43.107Z,99753.00
2018-11-12T11:45:46.625Z,99763.00
2018-11-12T11:46:50.313Z,99768.00
2018-11-12T11:47:54.336Z,99767.00
2018-11-12T11:48:58.071Z,99772.00
2018-11-12T11:50:01.744Z,99780.00
2018-11-12T11:51:05.599Z,99789.00
2018-11-12T11:52:09.290Z,99791.00
2018-11-12T11:53:13.070Z,99788.00
2018-11-12T11:54:16.673Z,99797.00
2018-11-12T11:55:22.210Z,99798.00
2018-11-12T11:56:25.942Z,99801.00
2018-11-12T11:57:29.842Z,99814.00
2018-11-12T11:58:33.619Z,99816.00
2018-11-12T11:59:37.379Z,99815.00
2018-11-12T12:00:40.964Z,99819.00
2018-11-12T12:01:44.478Z,99818.00
2018-11-12T12:02:48.973Z,99831.00
2018-11-12T12:03:56.772Z,99818.00
2018-11-12T12:05:00.473Z,99826.00
2018-11-12T12:06:04.004Z,99827.00
2018-11-12T12:07:07.770Z,99835.00
2018-11-12T12:08:11.291Z,99830.00
2018-11-12T12:09:14.385Z,99832.00
2018-11-12T12:10:18.520Z,99833.00
2018-11-12T12:11:22.034Z,99828.00
2018-11-12T12:12:26.189Z,99826.00
2018-11-12T12:13:29.508Z,99828.00
2018-11-12T12:14:32.554Z,99826.00
2018-11-12T12:15:36.402Z,99833.00
2018-11-12T12:16:39.873Z,99834.00
2018-11-12T12:17:43.566Z,99839.00
2018-11-12T12:18:47.230Z,99838.00
2018-11-12T12:19:51.061Z,99836.00
2018-11-12T12:20:54.723Z,99836.00
2018-11-12T12:21:58.422Z,99838.00
2018-11-12T12:23:02.007Z,99839.00
2018-11-12T12:24:05.407Z,99843.00
2018-11-12T12:25:09.619Z,99852.00
2018-11-12T12:26:13.256Z,99858.00
2018-11-12T12:27:16.891Z,99860.00
2018-11-12T12:28:20.400Z,99861.00
2018-11-12T12:29:24.479Z,99863.00